Latest Coastal Weather Observations for Cape Naturaliste

IDW60701

Issued at 2:45 pm WST Wednesday 23 April 2014 (issued every 10 minutes, with the page automatically refreshed every 10 minutes)

About coastal observations | Map of coastal stations | Coastal observations for WA | Marine services | Other Formats
Station Details ID: 009519 Name: CAPE NATURALISTE Lat: -33.54 Lon: 115.02 Height: 109.0 m
Data from the previous 72 hours. | See also: Recent months at Cape Naturaliste
Date/Time
WST
Temp

°C
Wind Pressure Rain
since 9am
mm
Weather Cloud Vis
km
Sea
Height
m
Swell
Dir
 
Speed
knots
Gust
knots
hPa Trend Height
m
Period
s
Dir
23/02:30pm 20.1 SSW 10 14 1016.0 - 0.0 - - - - - - -
23/02:00pm 19.5 SW 8 11 1016.5 - 0.0 - - - - - - -
23/01:30pm 19.9 SW 6 9 1016.8 - 0.0 - - - - - - -
23/01:00pm 19.4 WSW 5 9 1017.3 - 0.0 - - - - - - -
23/12:30pm 19.3 WSW 5 11 1017.5 - 0.0 - - - - - - -
23/12:00pm 18.4 E 5 9 1017.7 - 0.0 - - - - - - -
23/11:30am 18.6 NE 6 10 1018.2 - 0.0 - - - - - - -
23/11:00am 18.3 E 6 8 1018.4 - 0.0 - - - - - - -
23/10:30am 17.6 E 7 10 1018.5 - 0.0 - - - - - - -
23/10:00am 17.8 E 7 9 1018.7 - 0.0 - - - - - - -
23/09:30am 17.5 E 8 11 1018.8 - 0.0 - - - - - - -
23/09:00am 16.4 ESE 6 7 1018.7 - 0.0 - - - - - - -
23/08:30am 15.1 SE 7 9 1018.8 - 0.0 - - - - - - -
23/08:00am 15.1 SE 8 9 1018.5 - 0.0 - - - - - - -
23/07:30am 14.9 SE 6 7 1018.1 - 0.0 - - - - - - -
23/07:00am 14.0 SE 7 8 1017.8 - 0.0 - - - - - - -
23/06:30am 14.4 SE 7 8 1017.7 - 0.0 - - - - - - -
23/06:00am 14.4 SSE 8 10 1017.4 - 0.0 - - - - - - -
23/05:30am 14.0 S 10 11 1017.7 - 0.0 - - - - - - -
23/05:00am 14.1 SSE 8 10 1017.6 - 0.0 - - - - - - -
23/04:30am 14.4 S 10 13 1017.7 - 0.0 - - - - - - -
23/04:00am 15.2 SSW 9 12 1017.6 - 0.0 - - - - - - -
23/03:30am 15.8 SSW 7 9 1017.7 - 0.0 - - - - - - -
23/03:00am 15.3 S 8 11 1017.7 - 0.0 - - - - - - -
23/02:30am 15.2 SSW 8 11 1018.1 - 0.0 - - - - - - -
23/02:00am 16.2 SW 9 11 1018.2 - 0.0 - - - - - - -
23/01:30am 16.1 SSW 8 11 1018.4 - 0.0 - - - - - - -
23/01:00am 14.9 S 9 10 1018.5 - 0.0 - - - - - - -
23/12:30am 14.8 S 8 9 1018.4 - 0.0 - - - - - - -
23/12:00am 15.1 S 9 11 1017.9 - 0.0 - - - - - - -
 
Date/Time
WST
Temp

°C
Wind Pressure Rain
since 9am
mm
Weather Cloud Vis
km
Sea
Height
m
Swell
Dir
 
Speed
knots
Gust
knots
hPa Trend Height
m
Period
s
Dir
22/11:30pm 15.2 S 9 11 1018.4 - 0.0 - - - - - - -
22/11:00pm 15.3 SSW 8 11 1018.7 - 0.0 - - - - - - -
22/10:30pm 16.1 SW 9 13 1019.0 - 0.0 - - - - - - -
22/10:00pm 15.8 SSW 7 10 1019.3 - 0.0 - - - - - - -
22/09:30pm 16.3 SW 9 13 1019.1 - 0.0 - - - - - - -
22/09:00pm 16.0 SW 8 10 1018.9 - 0.0 - - - - - - -
22/08:30pm 16.0 SSW 8 11 1019.6 - 0.0 - - - - - - -
22/08:00pm 15.9 SSW 8 11 1019.8 - 0.0 - - - - - - -
22/07:30pm 16.1 SW 8 13 1019.3 - 0.0 - - - - - - -
22/07:00pm 16.1 SW 9 13 1019.0 - 0.0 - - - - - - -
22/06:30pm 16.2 WSW 5 7 1019.2 - 0.0 - - - - - - -
22/06:00pm 16.4 SW 4 6 1018.4 - 0.0 - - - - - - -
22/05:30pm 17.1 WSW 4 5 1018.4 - 0.0 - - - - - - -
22/05:00pm 17.4 SW 5 7 1018.7 - 0.0 - - - - - - -
22/04:30pm 17.4 SW 6 8 1018.7 - 0.0 - - - - - - -
22/04:00pm 19.7 SW 8 10 1018.6 - 0.0 - - - - - - -
22/03:30pm 20.2 SW 7 9 1018.7 - 0.0 - - - - - - -
22/03:00pm 19.3 WSW 7 9 1018.8 - 0.0 - - - - - - -
22/02:30pm 20.3 SW 6 8 1019.0 - 0.0 - - - - - - -
22/02:00pm 21.0 SW 7 10 1019.3 - 0.0 - - - - - - -
22/01:30pm 20.9 WSW 7 10 1019.8 - 0.0 - - - - - - -
22/01:00pm 20.9 SSW 6 9 1020.2 - 0.0 - - - - - - -
22/12:30pm 20.2 SSW 5 8 1020.7 - 0.0 - - - - - - -
22/12:00pm 18.8 E 3 6 1020.8 - 0.0 - - - - - - -
22/11:30am 18.6 NE 7 10 1021.1 - 0.0 - - - - - - -
22/11:00am 18.7 ENE 8 11 1021.4 - 0.0 - - - - - - -
22/10:30am 19.4 E 8 12 1021.6 - 0.0 - - - - - - -
22/10:00am 18.9 ESE 9 11 1021.9 - 0.0 - - - - - - -
22/09:30am 17.2 E 8 11 1022.1 - 0.0 - - - - - - -
22/09:00am 17.3 E 9 11 1021.7 - 0.0 - - - - - - -
22/08:30am 16.2 ESE 8 10 1021.8 - 0.0 - - - - - - -
22/08:00am 14.5 ESE 8 9 1021.5 - 0.0 - - - - - - -
22/07:30am 12.7 SE 8 9 1021.3 - 0.0 - - - - - - -
22/07:00am 11.4 SE 8 9 1021.2 - 0.0 - - - - - - -
22/06:30am 11.1 SE 9 10 1020.9 - 0.0 - - - - - - -
22/06:00am 11.0 SE 9 10 1020.5 - 0.0 - - - - - - -
22/05:30am 11.1 SE 9 10 1020.9 - 0.0 - - - - - - -
22/05:00am 11.3 SE 9 10 1021.0 - 0.0 - - - - - - -
22/04:30am 11.4 SE 8 9 1020.9 - 0.0 - - - - - - -
22/04:00am 11.4 SE 8 9 1020.9 - 0.0 - - - - - - -
22/03:30am 11.3 SE 8 8 1020.9 - 0.0 - - - - - - -
22/03:00am 11.2 SE 8 8 1020.6 - 0.0 - - - - - - -
22/02:30am 11.5 SE 8 9 1021.0 - 0.0 - - - - - - -
22/02:00am 11.7 SE 8 9 1020.8 - 0.0 - - - - - - -
22/01:30am 12.0 SSE 9 11 1020.8 - 0.0 - - - - - - -
22/01:00am 12.1 SSE 9 10 1021.0 - 0.0 - - - - - - -
22/12:30am 12.1 SSE 9 10 1021.0 - 0.0 - - - - - - -
22/12:00am 12.5 SSE 8 10 1020.8 - 0.0 - - - - - - -
 
Date/Time
WST
Temp

°C
Wind Pressure Rain
since 9am
mm
Weather Cloud Vis
km
Sea
Height
m
Swell
Dir
 
Speed
knots
Gust
knots
hPa Trend Height
m
Period
s
Dir
21/11:30pm 12.6 SSE 9 10 1021.1 - 0.0 - - - - - - -
21/11:00pm 12.7 SSE 9 11 1021.3 - 0.0 - - - - - - -
21/10:30pm 12.9 SSE 9 10 1021.5 - 0.0 - - - - - - -
21/10:00pm 13.0 SSE 9 11 1021.7 - 0.0 - - - - - - -
21/09:30pm 13.5 S 10 12 1021.7 - 0.0 - - - - - - -
21/09:00pm 13.7 S 11 14 1021.4 - 0.0 - - - - - - -
21/08:30pm 13.7 S 11 13 1021.8 - 0.0 - - - - - - -
21/08:00pm 13.9 S 11 13 1021.7 - 0.0 - - - - - - -
21/07:30pm 14.2 S 12 14 1021.4 - 0.0 - - - - - - -
21/07:00pm 14.5 S 12 16 1021.2 - 0.0 - - - - - - -
21/06:30pm 15.0 S 12 15 1020.8 - 0.0 - - - - - - -
21/06:00pm 15.6 SSW 13 17 1020.1 - 0.0 - - - - - - -
21/05:30pm 16.5 SSW 13 17 1020.1 - 0.0 - - - - - - -
21/05:00pm 17.5 SSW 13 19 1019.9 - 0.0 - - - - - - -
21/04:30pm 18.2 SSW 13 19 1020.0 - 0.0 - - - - - - -
21/04:00pm 18.9 SW 12 18 1020.0 - 0.0 - - - - - - -
21/03:30pm 19.2 SSW 12 17 1019.9 - 0.0 - - - - - - -
21/03:00pm 19.8 SSW 13 17 1019.6 - 0.0 - - - - - - -
21/02:30pm 20.0 SW 12 17 1019.7 - 0.0 - - - - - - -
21/02:00pm 20.0 SW 12 15 1019.6 - 0.0 - - - - - - -
21/01:30pm 19.4 SW 11 16 1019.7 - 0.0 - - - - - - -
21/01:00pm 20.6 SSW 10 14 1019.7 - 0.0 - - - - - - -
21/12:30pm 21.4 S 10 15 1020.0 - 0.0 - - - - - - -
21/12:00pm 20.0 SW 4 6 1019.9 - 0.0 - - - - - - -
21/11:30am 17.4 NE 5 7 1020.4 - 0.0 - - - - - - -
21/11:00am 17.0 ENE 5 8 1020.5 - 0.0 - - - - - - -
21/10:30am 17.5 E 9 13 1020.4 - 0.0 - - - - - - -
21/10:00am 17.8 E 9 12 1020.4 - 0.0 - - - - - - -
21/09:30am 17.8 E 9 12 1020.2 - 0.0 - - - - - - -
21/09:00am 17.3 ESE 7 9 1019.9 - 0.0 - - - - - - -
21/08:30am 14.7 ESE 5 7 1020.0 - 0.0 - - - - - - -
21/08:00am 14.3 SE 5 7 1019.7 - 0.0 - - - - - - -
21/07:30am 14.0 SE 7 8 1019.1 - 0.0 - - - - - - -
21/07:00am 13.4 SSE 9 11 1018.8 - 0.0 - - - - - - -
21/06:30am 13.0 SSE 9 11 1018.6 - 0.0 - - - - - - -
21/06:00am 13.4 SSE 6 7 1018.1 - 0.0 - - - - - - -
21/05:30am 13.0 S 7 8 1018.3 - 0.0 - - - - - - -
21/05:00am 12.7 S 9 10 1018.0 - 0.0 - - - - - - -
21/04:30am 13.0 S 9 11 1017.9 - 0.0 - - - - - - -
21/04:00am 13.0 S 11 13 1017.8 - 0.0 - - - - - - -
21/03:30am 13.1 S 11 12 1017.6 - 0.0 - - - - - - -
21/03:00am 13.2 S 10 12 1017.4 - 0.0 - - - - - - -
21/02:30am 13.4 S 10 12 1017.5 - 0.0 - - - - - - -
21/02:00am 13.4 S 11 13 1017.3 - 0.0 - - - - - - -
21/01:30am 13.2 S 10 11 1017.1 - 0.0 - - - - - - -
21/01:00am 13.4 S 10 12 1017.1 - 0.0 - - - - - - -
21/12:30am 13.5 S 10 12 1017.0 - 0.0 - - - - - - -
21/12:00am 13.3 S 10 11 1016.6 - 0.0 - - - - - - -
 
Date/Time
WST
Temp

°C
Wind Pressure Rain
since 9am
mm
Weather Cloud Vis
km
Sea
Height
m
Swell
Dir
 
Speed
knots
Gust
knots
hPa Trend Height
m
Period
s
Dir
20/11:30pm 13.4 S 10 13 1016.8 - 0.0 - - - - - - -
20/11:00pm 13.7 S 10 14 1017.0 - 0.0 - - - - - - -
20/10:30pm 13.6 S 10 12 1017.0 - 0.0 - - - - - - -
20/10:00pm 13.6 S 11 13 1017.0 - 0.0 - - - - - - -
20/09:30pm 13.3 SSE 9 11 1016.7 - 0.0 - - - - - - -
20/09:00pm 13.6 SSE 10 13 1016.2 - 0.0 - - - - - - -
20/08:30pm 14.0 S 10 13 1016.4 - 0.0 - - - - - - -
20/08:00pm 14.6 S 12 15 1016.3 - 0.0 - - - - - - -
20/07:30pm 15.0 S 12 16 1016.1 - 0.0 - - - - - - -
20/07:00pm 15.7 S 11 14 1015.9 - 0.0 - - - - - - -
20/06:30pm 16.0 S 11 15 1015.8 - 0.0 - - - - - - -
20/06:00pm 16.3 S 11 15 1015.2 - 0.0 - - - - - - -
20/05:30pm 16.7 S 13 16 1015.3 - 0.0 - - - - - - -
20/05:00pm 17.2 S 13 17 1015.2 - 0.0 - - - - - - -
20/04:30pm 17.8 S 13 17 1015.1 - 0.0 - - - - - - -
20/04:00pm 18.3 S 16 21 1014.9 - 0.0 - - - - - - -
20/03:30pm 18.4 SSW 15 22 1014.8 - 0.0 - - - - - - -
20/03:00pm 18.5 S 17 21 1014.2 - 0.0 - - - - - - -

Other Formats:

Comma delimited format used in spreadsheet applications
http://www.bom.gov.au/fwo/IDW60701/IDW60701.94600.axf

JavaScript Object Notation format (JSON) in row-major order
http://www.bom.gov.au/fwo/IDW60701/IDW60701.94600.json